createdAt,value
2022-12-19T00:01:35.206Z,25.13
2022-12-19T00:06:46.312Z,25.55
2022-12-19T00:09:15.782Z,25.73
2022-12-19T00:11:44.915Z,24.23
2022-12-19T00:14:11.863Z,23.63
2022-12-19T00:16:38.965Z,25.75
2022-12-19T00:19:06.243Z,25.70
2022-12-19T00:21:36.713Z,22.58
2022-12-19T00:24:03.625Z,23.08
2022-12-19T00:26:35.616Z,22.88
2022-12-19T00:29:02.503Z,24.20
2022-12-19T00:31:29.454Z,22.73
2022-12-19T00:33:56.379Z,24.08
2022-12-19T00:36:23.444Z,24.42
2022-12-19T00:38:50.340Z,22.52
2022-12-19T00:41:17.267Z,23.55
2022-12-19T00:43:44.176Z,23.55
2022-12-19T00:46:11.123Z,22.40
2022-12-19T00:48:38.068Z,23.95
2022-12-19T00:51:04.958Z,22.40
2022-12-19T00:53:34.097Z,26.25
2022-12-19T00:56:00.970Z,25.20
2022-12-19T00:58:27.863Z,26.75
2022-12-19T01:00:54.799Z,24.90
2022-12-19T01:03:21.770Z,23.08
2022-12-19T01:05:48.668Z,21.50
2022-12-19T01:08:15.952Z,22.75
2022-12-19T01:10:44.987Z,22.42
2022-12-19T01:13:11.891Z,22.45
2022-12-19T01:15:38.773Z,22.48
2022-12-19T01:18:05.662Z,25.13
2022-12-19T01:20:32.537Z,25.02
2022-12-19T01:23:00.114Z,25.08
2022-12-19T01:25:27.556Z,27.05
2022-12-19T01:27:54.485Z,26.35
2022-12-19T01:30:21.372Z,24.30
2022-12-19T01:32:49.914Z,24.33
2022-12-19T01:35:21.333Z,22.95
2022-12-19T01:37:49.231Z,23.33
2022-12-19T01:40:16.112Z,23.65
2022-12-19T01:42:43.026Z,25.52
2022-12-19T01:45:13.575Z,23.25
2022-12-19T01:47:40.854Z,24.92
2022-12-19T01:50:07.734Z,24.92
2022-12-19T01:52:34.658Z,23.65
2022-12-19T01:55:01.547Z,26.42
2022-12-19T01:57:28.449Z,25.17
2022-12-19T01:59:55.350Z,24.05
2022-12-19T02:02:22.317Z,22.70
2022-12-19T02:04:49.282Z,26.52
2022-12-19T02:07:16.576Z,25.15
2022-12-19T02:09:43.543Z,24.20
2022-12-19T02:12:10.434Z,24.45
2022-12-19T02:14:37.322Z,26.40
2022-12-19T02:17:04.218Z,23.10
2022-12-19T02:19:31.131Z,26.85
2022-12-19T02:21:58.035Z,22.77
2022-12-19T02:24:24.937Z,26.08
2022-12-19T02:26:51.832Z,23.58
2022-12-19T02:29:18.732Z,26.42
2022-12-19T02:31:45.688Z,22.30
2022-12-19T02:34:12.625Z,25.05
2022-12-19T02:36:41.887Z,23.50
2022-12-19T02:39:10.455Z,24.98
2022-12-19T02:41:37.354Z,25.75
2022-12-19T02:44:04.256Z,26.75
2022-12-19T02:46:31.171Z,24.40
2022-12-19T02:48:58.097Z,26.73
2022-12-19T02:51:24.993Z,23.65
2022-12-19T02:53:51.918Z,29.05
2022-12-19T02:56:18.807Z,25.60
2022-12-19T02:58:46.176Z,25.23
2022-12-19T03:01:14.696Z,24.50
2022-12-19T03:03:41.721Z,25.73
2022-12-19T03:06:08.635Z,24.90
2022-12-19T03:08:35.566Z,24.95
2022-12-19T03:11:02.449Z,23.85
2022-12-19T03:13:29.384Z,26.80
2022-12-19T03:15:56.274Z,26.30
2022-12-19T03:18:23.173Z,25.65
2022-12-19T03:20:50.066Z,24.83
2022-12-19T03:23:17.760Z,23.80
2022-12-19T03:25:44.654Z,26.02
2022-12-19T03:28:11.561Z,25.20
2022-12-19T03:30:38.482Z,23.70
2022-12-19T03:33:05.407Z,26.98
2022-12-19T03:35:32.289Z,24.70
2022-12-19T03:37:59.184Z,23.48
2022-12-19T03:40:26.177Z,25.48
2022-12-19T03:42:53.110Z,24.02
2022-12-19T03:45:20.038Z,25.83
2022-12-19T03:47:46.969Z,24.63
2022-12-19T03:50:13.868Z,22.48
2022-12-19T03:52:40.794Z,24.80
2022-12-19T03:55:07.765Z,25.92
2022-12-19T03:57:34.678Z,24.25
2022-12-19T04:00:01.561Z,24.60
2022-12-19T04:02:28.521Z,26.48
2022-12-19T04:04:55.517Z,22.67
2022-12-19T04:07:22.429Z,24.98
2022-12-19T04:09:49.309Z,26.10
2022-12-19T04:12:16.196Z,23.55
2022-12-19T04:14:43.097Z,24.30
2022-12-19T04:17:10.007Z,23.65
2022-12-19T04:19:42.359Z,26.25
2022-12-19T04:22:09.543Z,26.35
2022-12-19T04:24:36.480Z,23.65
2022-12-19T04:27:03.528Z,25.63
2022-12-19T04:29:30.446Z,23.35
2022-12-19T04:31:57.352Z,28.02
2022-12-19T04:34:24.272Z,22.08
2022-12-19T04:36:51.182Z,22.33
2022-12-19T04:39:18.080Z,26.52
2022-12-19T04:41:44.988Z,23.35
2022-12-19T04:44:11.885Z,23.05
2022-12-19T04:46:38.814Z,26.05
2022-12-19T04:49:05.760Z,24.63
2022-12-19T04:51:32.729Z,26.77
2022-12-19T04:53:59.643Z,22.08
2022-12-19T04:56:26.529Z,21.52
2022-12-19T04:58:53.414Z,23.55
2022-12-19T05:01:20.359Z,26.20
2022-12-19T05:03:52.735Z,21.10
2022-12-19T05:06:21.554Z,24.13
2022-12-19T05:08:48.727Z,21.35
2022-12-19T05:11:19.447Z,23.92
2022-12-19T05:16:38.150Z,22.58
2022-12-19T05:19:05.070Z,21.13
2022-12-19T05:21:31.974Z,22.58
2022-12-19T05:23:58.888Z,25.92
2022-12-19T05:26:25.811Z,21.02
2022-12-19T05:28:52.708Z,23.65
2022-12-19T05:31:19.700Z,21.45
2022-12-19T05:33:46.818Z,20.85
2022-12-19T05:36:13.726Z,24.73
2022-12-19T05:38:40.731Z,23.17
2022-12-19T05:41:07.622Z,21.67
2022-12-19T05:43:34.539Z,21.80
2022-12-19T05:48:45.271Z,23.85
2022-12-19T05:51:13.592Z,23.35
2022-12-19T05:53:40.507Z,20.95
2022-12-19T05:56:08.649Z,23.70
2022-12-19T05:58:35.842Z,22.98
2022-12-19T06:01:02.815Z,24.67
2022-12-19T06:03:29.782Z,21.25
2022-12-19T06:05:56.990Z,23.23
2022-12-19T06:08:23.899Z,20.83
2022-12-19T06:10:50.821Z,22.88
2022-12-19T06:13:20.880Z,20.77
2022-12-19T06:15:53.130Z,21.30
2022-12-19T06:18:20.077Z,22.67
2022-12-19T06:20:47.018Z,24.23
2022-12-19T06:23:13.917Z,19.88
2022-12-19T06:25:40.849Z,24.17
2022-12-19T06:28:07.739Z,21.85
2022-12-19T06:30:35.324Z,23.23
2022-12-19T06:33:02.373Z,22.40
2022-12-19T06:35:29.382Z,22.20
2022-12-19T06:38:00.807Z,20.58
2022-12-19T06:40:27.988Z,22.92
2022-12-19T06:42:54.941Z,24.75
2022-12-19T06:45:22.191Z,22.02
2022-12-19T06:47:49.153Z,22.95
2022-12-19T06:50:16.098Z,22.20
2022-12-19T06:52:43.019Z,24.33
2022-12-19T06:55:10.065Z,21.90
2022-12-19T06:57:40.351Z,22.33
2022-12-19T07:00:07.264Z,22.67
2022-12-19T07:02:34.586Z,23.15
2022-12-19T07:05:01.770Z,20.20
2022-12-19T07:07:28.696Z,22.25
2022-12-19T07:10:02.726Z,19.05
2022-12-19T07:12:30.787Z,18.95
2022-12-19T07:14:57.731Z,21.88
2022-12-19T07:17:24.643Z,23.00
2022-12-19T07:19:51.558Z,20.80
2022-12-19T07:22:18.480Z,21.63
2022-12-19T07:24:45.477Z,22.08
2022-12-19T07:27:12.390Z,20.05
2022-12-19T07:29:39.382Z,20.67
2022-12-19T07:32:06.367Z,20.15
2022-12-19T07:34:33.393Z,20.75
2022-12-19T07:37:00.295Z,21.25
2022-12-19T07:39:28.790Z,23.92
2022-12-19T07:41:55.755Z,19.17
2022-12-19T07:44:24.103Z,20.10
2022-12-19T07:46:51.032Z,22.10
2022-12-19T07:49:31.461Z,20.25
2022-12-19T07:52:13.503Z,18.80
2022-12-19T07:54:40.436Z,19.65
2022-12-19T07:57:07.597Z,20.65
2022-12-19T07:59:39.019Z,19.75
2022-12-19T08:02:06.463Z,22.50
2022-12-19T08:04:34.887Z,22.05
2022-12-19T08:07:01.804Z,24.25
2022-12-19T08:09:28.739Z,21.55
2022-12-19T08:14:59.236Z,18.60
2022-12-19T08:20:34.671Z,20.25
2022-12-19T08:40:17.320Z,23.45
2022-12-19T08:42:44.232Z,22.95
2022-12-19T08:45:11.814Z,19.83
2022-12-19T08:47:38.734Z,20.92
2022-12-19T08:50:05.667Z,20.10
2022-12-19T08:52:32.607Z,21.20
2022-12-19T08:54:59.560Z,20.55
2022-12-19T08:57:26.475Z,20.65
2022-12-19T08:59:53.413Z,22.77
2022-12-19T09:02:21.343Z,20.88
2022-12-19T09:06:02.384Z,20.67
2022-12-19T09:07:35.283Z,19.60
2022-12-19T09:10:05.870Z,21.60
2022-12-19T09:12:32.996Z,20.73
2022-12-19T09:14:59.951Z,19.77
2022-12-19T09:17:26.864Z,19.00
2022-12-19T09:19:54.323Z,19.08
2022-12-19T09:22:21.247Z,17.83
2022-12-19T09:24:54.657Z,21.13
2022-12-19T09:27:25.939Z,19.88
2022-12-19T09:32:19.916Z,19.98
2022-12-19T09:34:47.151Z,19.52
2022-12-19T09:37:16.976Z,19.40
2022-12-19T09:39:44.723Z,19.70
2022-12-19T09:42:11.728Z,21.35
2022-12-19T09:44:38.806Z,18.00
2022-12-19T09:47:05.767Z,20.52
2022-12-19T09:49:32.925Z,18.80
2022-12-19T09:52:00.168Z,19.55
2022-12-19T09:54:27.434Z,18.92
2022-12-19T09:56:54.370Z,20.92
2022-12-19T09:59:22.627Z,19.92
2022-12-19T10:01:53.285Z,20.20
2022-12-19T10:04:20.361Z,19.00
2022-12-19T10:07:09.204Z,19.05
2022-12-19T10:11:44.298Z,21.88
2022-12-19T10:12:42.888Z,19.75
2022-12-19T10:15:09.887Z,19.08
2022-12-19T10:17:36.852Z,21.98
2022-12-19T10:20:03.796Z,20.35
2022-12-19T10:22:36.924Z,18.40
2022-12-19T10:25:08.996Z,21.20
2022-12-19T10:27:59.698Z,19.27
2022-12-19T10:30:27.838Z,19.35
2022-12-19T10:32:58.292Z,18.00
2022-12-19T10:35:25.455Z,18.50
2022-12-19T10:40:37.311Z,18.70
2022-12-19T10:43:10.902Z,19.00
2022-12-19T10:45:38.959Z,17.90
2022-12-19T10:48:07.477Z,18.55
2022-12-19T10:50:34.442Z,16.50
2022-12-19T10:53:01.414Z,16.65
2022-12-19T10:55:28.389Z,17.42
2022-12-19T10:57:55.328Z,17.48
2022-12-19T11:00:22.319Z,16.67
2022-12-19T11:02:49.372Z,14.93
2022-12-19T11:05:17.969Z,18.10
2022-12-19T11:07:44.958Z,17.63
2022-12-19T11:10:51.601Z,16.45
2022-12-19T11:18:47.189Z,15.13
2022-12-19T11:20:07.476Z,14.05
2022-12-19T11:24:53.481Z,15.88
2022-12-19T11:29:31.957Z,14.15
2022-12-19T11:29:41.754Z,13.15
2022-12-19T11:30:42.813Z,14.52
2022-12-19T11:32:46.816Z,14.90
2022-12-19T11:35:14.226Z,14.02
2022-12-19T11:37:41.162Z,13.95
2022-12-19T11:40:08.081Z,13.38
2022-12-19T11:42:35.003Z,13.20
2022-12-19T11:45:02.009Z,13.73
2022-12-19T11:47:28.932Z,14.15
2022-12-19T11:49:55.843Z,15.15
2022-12-19T11:53:02.909Z,15.77
2022-12-19T11:55:09.640Z,14.77
2022-12-19T11:57:36.554Z,14.05
2022-12-19T12:00:05.604Z,15.27
2022-12-19T12:02:32.886Z,14.40
2022-12-19T12:04:59.854Z,15.50
2022-12-19T12:08:43.028Z,14.98
2022-12-19T12:16:27.281Z,15.63
2022-12-19T12:23:34.657Z,14.57
2022-12-19T12:29:05.051Z,17.17
2022-12-19T12:30:59.407Z,16.38
2022-12-19T12:31:17.025Z,15.00
2022-12-19T12:31:50.263Z,16.50
2022-12-19T12:32:03.987Z,17.00
2022-12-19T12:35:12.467Z,15.70
2022-12-19T12:35:46.913Z,15.10
2022-12-19T12:37:54.061Z,14.63
2022-12-19T12:40:52.297Z,14.30
2022-12-19T12:43:19.198Z,14.63
2022-12-19T12:45:46.249Z,14.18
2022-12-19T12:48:14.273Z,16.45
2022-12-19T12:50:41.209Z,15.60
2022-12-19T12:53:08.165Z,14.25
2022-12-19T12:55:35.084Z,14.60
2022-12-19T12:58:02.096Z,15.50
2022-12-19T13:00:29.023Z,14.10
2022-12-19T13:02:56.116Z,14.32
2022-12-19T13:05:28.103Z,16.33
2022-12-19T13:07:55.071Z,16.30
2022-12-19T13:10:21.978Z,14.10
2022-12-19T13:12:48.916Z,14.30
2022-12-19T13:15:16.975Z,15.05
2022-12-19T13:17:43.955Z,14.38
2022-12-19T13:20:15.145Z,14.60
2022-12-19T13:22:42.185Z,14.25
2022-12-19T13:25:09.106Z,14.77
2022-12-19T13:27:36.091Z,15.35
2022-12-19T13:30:03.003Z,14.63
2022-12-19T13:32:29.955Z,15.00
2022-12-19T13:35:09.094Z,14.40
2022-12-19T13:39:48.493Z,18.60
2022-12-19T13:40:32.689Z,15.05
2022-12-19T13:43:09.932Z,15.20
2022-12-19T13:45:37.980Z,15.20
2022-12-19T13:48:06.749Z,16.15
2022-12-19T13:50:35.246Z,14.43
2022-12-19T13:53:02.182Z,16.45
2022-12-19T13:55:29.110Z,16.90
2022-12-19T13:57:56.059Z,16.90
2022-12-19T14:00:22.990Z,17.02
2022-12-19T14:02:50.156Z,14.43
2022-12-19T14:05:17.267Z,14.93
2022-12-19T14:07:58.873Z,15.13
2022-12-19T14:11:32.694Z,16.30
2022-12-19T14:13:55.621Z,14.15
2022-12-19T14:15:59.872Z,14.25
2022-12-19T14:18:42.732Z,16.25
2022-12-19T14:22:10.256Z,15.50
2022-12-19T14:23:59.568Z,14.52
2022-12-19T14:28:19.051Z,14.65
2022-12-19T14:29:13.429Z,16.15
2022-12-19T14:31:58.759Z,14.35
2022-12-19T14:37:14.164Z,13.68
2022-12-19T14:39:58.826Z,15.80
2022-12-19T14:42:49.252Z,13.77
2022-12-19T14:53:17.581Z,16.23
2022-12-19T14:54:03.318Z,16.23
2022-12-19T14:54:21.966Z,14.95
2022-12-19T14:54:37.733Z,14.57
2022-12-19T14:56:52.075Z,14.18
2022-12-19T14:59:07.638Z,14.85
2022-12-19T15:01:34.744Z,14.63
2022-12-19T15:04:49.127Z,15.90
2022-12-19T15:07:09.517Z,16.23
2022-12-19T15:11:04.090Z,15.98
2022-12-19T15:14:48.490Z,14.05
2022-12-19T15:15:09.854Z,14.55
2022-12-19T15:17:36.836Z,14.45
2022-12-19T15:22:44.599Z,16.52
2022-12-19T16:07:39.201Z,20.17
2022-12-19T16:10:06.132Z,17.73
2022-12-19T16:12:33.694Z,17.10
2022-12-19T16:15:00.779Z,16.60
2022-12-19T16:17:27.705Z,18.08
2022-12-19T16:46:12.826Z,20.25
2022-12-19T16:48:39.519Z,19.20
2022-12-19T16:51:06.468Z,19.10
2022-12-19T16:53:33.416Z,19.42
2022-12-19T16:56:00.503Z,19.02
2022-12-19T16:58:27.469Z,20.83
2022-12-19T17:00:54.443Z,19.20
2022-12-19T17:03:21.538Z,21.15
2022-12-19T17:05:48.570Z,22.65
2022-12-19T17:08:15.456Z,24.35
2022-12-19T17:10:42.360Z,21.90
2022-12-19T17:13:09.271Z,22.35
2022-12-19T17:15:36.228Z,22.15
2022-12-19T17:18:03.193Z,21.30
2022-12-19T17:20:30.093Z,19.80
2022-12-19T17:22:56.993Z,19.80
2022-12-19T17:25:23.890Z,19.42
2022-12-19T17:27:50.806Z,19.10
2022-12-19T17:30:18.760Z,24.17
2022-12-19T17:32:45.767Z,21.63
2022-12-19T17:35:12.814Z,20.50
2022-12-19T17:37:39.713Z,19.17
2022-12-19T17:40:06.623Z,21.52
2022-12-19T17:42:37.278Z,20.90
2022-12-19T17:45:04.581Z,18.98
2022-12-19T17:47:31.494Z,20.00
2022-12-19T17:49:58.715Z,20.92
2022-12-19T17:52:25.632Z,20.40
2022-12-19T17:54:52.542Z,21.02
2022-12-19T17:57:19.454Z,21.60
2022-12-19T17:59:46.449Z,21.65
2022-12-19T18:02:13.721Z,22.25
2022-12-19T18:04:40.760Z,22.65
2022-12-19T18:07:07.703Z,21.75
2022-12-19T18:09:34.617Z,22.42
2022-12-19T18:12:01.527Z,21.88
2022-12-19T18:14:28.411Z,19.50
2022-12-19T18:16:55.423Z,23.42
2022-12-19T18:19:22.482Z,23.95
2022-12-19T18:21:49.415Z,25.95
2022-12-19T18:24:16.455Z,22.25
2022-12-19T18:26:43.578Z,25.27
2022-12-19T18:29:10.473Z,21.98
2022-12-19T18:31:37.425Z,22.65
2022-12-19T18:34:08.065Z,22.17
2022-12-19T18:36:35.228Z,22.75
2022-12-19T18:39:02.128Z,23.13
2022-12-19T18:41:31.661Z,22.30
2022-12-19T18:43:58.590Z,23.00
2022-12-19T18:46:25.560Z,25.60
2022-12-19T18:48:52.459Z,23.95
2022-12-19T18:51:22.440Z,21.77
2022-12-19T18:53:49.546Z,22.40
2022-12-19T18:56:16.488Z,22.67
2022-12-19T18:58:43.408Z,24.52
2022-12-19T19:01:10.362Z,24.35
2022-12-19T19:03:37.549Z,23.83
2022-12-19T19:06:04.572Z,25.02
2022-12-19T19:08:31.459Z,23.00
2022-12-19T19:11:04.662Z,24.73
2022-12-19T19:13:31.587Z,21.77
2022-12-19T19:15:58.734Z,23.25
2022-12-19T19:18:25.651Z,23.30
2022-12-19T19:20:58.838Z,23.55
2022-12-19T19:23:27.816Z,21.70
2022-12-19T19:28:51.933Z,22.35
2022-12-19T19:31:19.605Z,24.02
2022-12-19T19:33:46.702Z,23.73
2022-12-19T19:36:13.605Z,26.80
2022-12-19T19:38:40.522Z,22.73
2022-12-19T19:41:07.471Z,21.77
2022-12-19T19:43:35.458Z,21.73
2022-12-19T19:46:02.922Z,22.02
2022-12-19T19:48:30.022Z,24.42
2022-12-19T19:50:57.001Z,24.25
2022-12-19T19:53:23.902Z,19.67
2022-12-19T19:55:51.006Z,24.17
2022-12-19T19:58:17.925Z,23.63
2022-12-19T20:00:44.980Z,21.00
2022-12-19T20:03:15.397Z,25.73
2022-12-19T20:05:47.622Z,22.83
2022-12-19T20:08:14.519Z,21.65
2022-12-19T20:10:41.429Z,21.65
2022-12-19T20:13:08.336Z,23.45
2022-12-19T20:15:35.292Z,21.38
2022-12-19T20:18:03.159Z,20.30
2022-12-19T20:20:30.079Z,22.17
2022-12-19T20:22:57.159Z,23.70
2022-12-19T20:25:24.063Z,23.48
2022-12-19T20:27:51.147Z,21.80
2022-12-19T20:30:18.187Z,20.98
2022-12-19T20:32:45.137Z,22.85
2022-12-19T20:35:15.067Z,24.67
2022-12-19T20:37:42.539Z,23.23
2022-12-19T20:40:09.470Z,20.55
2022-12-19T20:42:36.397Z,22.67
2022-12-19T20:47:54.599Z,20.90
2022-12-19T20:50:21.548Z,22.55
2022-12-19T20:52:48.503Z,20.75
2022-12-19T20:55:15.437Z,22.48
2022-12-19T20:57:46.650Z,22.05
2022-12-19T21:03:25.025Z,20.40
2022-12-19T21:05:27.419Z,20.55
2022-12-19T21:07:54.378Z,22.08
2022-12-19T21:10:21.364Z,21.92
2022-12-19T21:12:48.450Z,20.27
2022-12-19T21:18:02.612Z,22.63
2022-12-19T21:20:34.143Z,22.50
2022-12-19T21:23:01.427Z,21.42
2022-12-19T21:25:28.353Z,22.60
2022-12-19T21:27:55.254Z,20.83
2022-12-19T21:30:22.241Z,21.65
2022-12-19T21:32:51.338Z,22.73
2022-12-19T21:35:18.251Z,21.05
2022-12-19T21:37:45.164Z,22.10
2022-12-19T21:40:12.231Z,20.52
2022-12-19T21:42:39.141Z,19.55
2022-12-19T21:47:46.927Z,19.67
2022-12-19T21:53:10.076Z,20.70
2022-12-19T21:55:36.990Z,20.17
2022-12-19T21:58:03.967Z,21.35
2022-12-19T22:00:31.081Z,21.23
2022-12-19T22:03:15.081Z,21.55
2022-12-19T22:05:42.732Z,20.70
2022-12-19T22:08:09.668Z,24.20
2022-12-19T22:10:36.580Z,19.98
2022-12-19T22:13:03.511Z,19.25
2022-12-19T22:15:30.426Z,23.33
2022-12-19T22:17:57.333Z,20.02
2022-12-19T22:20:24.234Z,20.65
2022-12-19T22:22:51.133Z,18.98
2022-12-19T22:28:01.657Z,19.65
2022-12-19T22:30:28.541Z,22.33
2022-12-19T22:32:55.446Z,20.58
2022-12-19T22:35:22.360Z,18.95
2022-12-19T22:37:49.337Z,22.13
2022-12-19T22:40:16.316Z,21.30
2022-12-19T22:42:43.220Z,21.40
2022-12-19T22:45:16.449Z,19.17
2022-12-19T22:47:43.529Z,19.95
2022-12-19T22:50:17.069Z,21.05
2022-12-19T22:58:33.329Z,19.42
2022-12-19T23:01:00.362Z,19.65
2022-12-19T23:12:09.560Z,18.85
2022-12-19T23:14:36.641Z,20.83
2022-12-19T23:19:51.689Z,18.45
2022-12-19T23:27:58.971Z,19.15
2022-12-19T23:33:06.824Z,19.52
2022-12-19T23:35:33.893Z,18.80
2022-12-19T23:38:10.625Z,18.90
2022-12-19T23:46:08.832Z,18.40
2022-12-19T23:48:35.802Z,18.77
2022-12-19T23:53:56.897Z,19.80
2022-12-19T23:56:46.439Z,19.80
2022-12-19T23:59:25.791Z,19.77
